createdAt,value
2023-03-26T00:03:18.434Z,6.21
2023-03-26T00:08:20.417Z,6.29
2023-03-26T00:13:22.190Z,6.36
2023-03-26T00:18:29.917Z,6.43
2023-03-26T00:23:34.857Z,6.51
2023-03-26T00:28:37.853Z,6.57
2023-03-26T00:33:41.032Z,6.63
2023-03-26T00:38:43.863Z,6.68
2023-03-26T00:43:46.254Z,6.73
2023-03-26T00:48:48.140Z,6.76
2023-03-26T00:53:50.858Z,6.78
2023-03-26T00:58:53.018Z,6.79
2023-03-26T01:04:07.294Z,6.80
2023-03-26T01:09:21.796Z,6.79
2023-03-26T01:14:26.409Z,6.78
2023-03-26T01:19:37.586Z,6.77
2023-03-26T01:24:40.371Z,6.77
2023-03-26T01:30:12.884Z,6.77
2023-03-26T01:35:33.216Z,6.78
2023-03-26T01:40:42.257Z,6.78
2023-03-26T01:45:47.489Z,6.77
2023-03-26T01:50:53.058Z,6.75
2023-03-26T01:56:19.710Z,6.73
2023-03-26T02:01:44.688Z,6.68
2023-03-26T02:06:58.177Z,6.65
2023-03-26T02:12:00.870Z,6.65
2023-03-26T02:17:02.961Z,6.67
2023-03-26T02:22:04.931Z,6.69
2023-03-26T02:27:11.828Z,6.72
2023-03-26T02:32:14.112Z,6.75
2023-03-26T02:37:18.650Z,6.76
2023-03-26T02:42:20.630Z,6.77
2023-03-26T02:47:22.836Z,6.78
2023-03-26T02:52:24.547Z,6.78
2023-03-26T02:57:26.408Z,6.79
2023-03-26T03:02:28.867Z,6.76
2023-03-26T03:07:31.344Z,6.71
2023-03-26T03:12:33.015Z,6.66
2023-03-26T03:17:34.947Z,6.60
2023-03-26T03:22:37.282Z,6.53
2023-03-26T03:27:39.777Z,6.47
2023-03-26T03:32:41.762Z,6.45
2023-03-26T03:37:43.842Z,6.45
2023-03-26T03:42:46.438Z,6.47
2023-03-26T03:47:48.553Z,6.49
2023-03-26T03:52:50.392Z,6.50
2023-03-26T03:57:52.065Z,6.53
2023-03-26T04:02:54.033Z,6.55
2023-03-26T04:07:55.922Z,6.57
2023-03-26T04:12:57.795Z,6.57
2023-03-26T04:17:59.597Z,6.56
2023-03-26T04:23:01.344Z,6.55
2023-03-26T04:28:06.914Z,6.51
2023-03-26T04:33:14.834Z,6.50
2023-03-26T04:38:18.033Z,6.47
2023-03-26T04:43:19.718Z,6.46
2023-03-26T04:48:22.509Z,6.45
2023-03-26T04:53:24.894Z,6.45
2023-03-26T04:58:32.194Z,6.45
2023-03-26T05:03:34.085Z,6.46
2023-03-26T05:08:36.061Z,6.47
2023-03-26T05:13:38.234Z,6.50
2023-03-26T05:18:40.417Z,6.53
2023-03-26T05:23:42.197Z,6.57
2023-03-26T05:28:43.967Z,6.63
2023-03-26T05:33:46.082Z,6.73
2023-03-26T05:38:49.192Z,6.84
2023-03-26T05:43:51.036Z,6.95
2023-03-26T05:48:53.731Z,7.05
2023-03-26T05:53:55.506Z,7.23
2023-03-26T05:58:57.384Z,7.54
2023-03-26T06:03:59.143Z,7.77
2023-03-26T06:09:02.843Z,8.08
2023-03-26T06:14:06.595Z,8.12
2023-03-26T06:19:08.844Z,8.13
2023-03-26T06:24:11.082Z,8.37
2023-03-26T06:29:14.374Z,9.44
2023-03-26T06:34:16.356Z,10.75
2023-03-26T06:39:19.359Z,11.50
2023-03-26T06:44:21.340Z,11.84
2023-03-26T06:49:23.321Z,11.32
2023-03-26T06:54:25.397Z,10.72
2023-03-26T06:59:27.385Z,10.23
2023-03-26T07:04:29.497Z,10.08
2023-03-26T07:09:32.364Z,10.05
2023-03-26T07:14:34.345Z,9.99
2023-03-26T07:19:36.747Z,9.76
2023-03-26T07:24:39.235Z,9.49
2023-03-26T07:29:53.695Z,9.33
2023-03-26T07:34:58.660Z,9.26
2023-03-26T07:40:13.029Z,9.33
2023-03-26T07:45:42.619Z,9.63
2023-03-26T07:50:45.540Z,9.90
2023-03-26T07:56:00.372Z,10.19
2023-03-26T08:01:22.581Z,10.67
2023-03-26T08:06:35.328Z,11.46
2023-03-26T08:11:40.561Z,11.62
2023-03-26T08:16:51.653Z,11.77
2023-03-26T08:22:02.884Z,12.42
2023-03-26T08:27:37.492Z,13.36
2023-03-26T08:32:40.533Z,13.88
2023-03-26T08:37:45.240Z,13.43
2023-03-26T08:43:19.169Z,12.67
2023-03-26T08:48:59.558Z,12.07
2023-03-26T08:54:23.654Z,11.70
2023-03-26T09:00:08.017Z,11.41
2023-03-26T09:05:44.305Z,11.53
2023-03-26T09:11:05.633Z,13.09
2023-03-26T09:16:53.182Z,13.55
2023-03-26T09:22:37.561Z,12.89
2023-03-26T09:28:29.417Z,12.06
2023-03-26T09:33:53.504Z,11.29
2023-03-26T09:39:08.933Z,10.83
2023-03-26T09:44:23.577Z,10.44
2023-03-26T09:49:25.564Z,10.36
2023-03-26T09:54:36.856Z,11.43
2023-03-26T09:59:58.907Z,14.10
2023-03-26T10:05:20.543Z,17.19
2023-03-26T10:10:42.588Z,19.14
2023-03-26T10:15:57.583Z,18.08
2023-03-26T10:21:30.280Z,16.75
2023-03-26T10:27:08.705Z,16.35
2023-03-26T10:32:43.989Z,16.69
2023-03-26T10:38:03.254Z,16.55
2023-03-26T10:43:19.624Z,15.74
2023-03-26T10:48:54.003Z,15.20
2023-03-26T10:54:00.615Z,14.36
2023-03-26T10:59:07.895Z,13.83
2023-03-26T11:04:31.198Z,14.12
2023-03-26T11:09:52.308Z,13.91
2023-03-26T11:15:13.454Z,13.57
2023-03-26T11:20:38.153Z,14.15
2023-03-26T11:25:49.662Z,14.75
2023-03-26T11:31:00.529Z,14.79
2023-03-26T11:36:17.939Z,14.62
2023-03-26T11:41:23.318Z,14.36
2023-03-26T11:46:27.453Z,14.17
2023-03-26T11:51:33.352Z,14.29
2023-03-26T11:57:05.411Z,14.29
2023-03-26T12:02:09.813Z,14.25
2023-03-26T12:07:24.632Z,14.34
2023-03-26T12:12:37.981Z,14.17
2023-03-26T12:17:41.925Z,13.50
2023-03-26T12:22:47.795Z,12.51
2023-03-26T12:27:52.619Z,11.50
2023-03-26T12:33:03.404Z,10.38
2023-03-26T12:38:35.604Z,9.66
2023-03-26T12:44:51.260Z,9.77
2023-03-26T12:49:11.033Z,10.67
2023-03-26T12:54:23.458Z,11.35
2023-03-26T12:59:40.297Z,11.77
2023-03-26T13:05:13.963Z,12.26
2023-03-26T13:10:26.587Z,12.46
2023-03-26T13:15:39.224Z,12.44
2023-03-26T13:21:21.240Z,12.48
2023-03-26T13:26:54.330Z,12.44
2023-03-26T13:32:05.770Z,12.33
2023-03-26T13:37:28.828Z,12.06
2023-03-26T13:42:55.523Z,11.69
2023-03-26T13:48:02.894Z,11.49
2023-03-26T13:53:07.543Z,11.49
2023-03-26T13:58:22.109Z,11.57
2023-03-26T14:03:46.855Z,11.65
2023-03-26T14:08:57.841Z,11.46
2023-03-26T14:14:12.286Z,11.28
2023-03-26T14:19:43.042Z,11.45
2023-03-26T14:25:25.307Z,11.65
2023-03-26T14:30:57.995Z,11.71
2023-03-26T14:36:08.175Z,11.57
2023-03-26T14:41:25.220Z,11.47
2023-03-26T14:46:36.096Z,11.32
2023-03-26T14:51:50.622Z,11.11
2023-03-26T14:56:53.691Z,10.95
2023-03-26T15:02:24.858Z,10.83
2023-03-26T15:07:32.813Z,10.79
2023-03-26T15:12:48.210Z,10.75
2023-03-26T15:17:50.320Z,10.69
2023-03-26T15:23:20.948Z,10.68
2023-03-26T15:28:58.760Z,10.65
2023-03-26T15:34:38.721Z,10.77
2023-03-26T15:40:10.091Z,10.84
2023-03-26T15:45:35.843Z,10.79
2023-03-26T15:51:18.560Z,10.46
2023-03-26T15:56:32.701Z,9.98
2023-03-26T16:02:02.153Z,9.69
2023-03-26T16:07:29.728Z,9.51
2023-03-26T16:12:54.855Z,9.40
2023-03-26T16:18:06.141Z,9.29
2023-03-26T16:23:47.896Z,9.10
2023-03-26T16:28:52.551Z,8.78
2023-03-26T16:34:21.814Z,8.52
2023-03-26T16:39:39.580Z,8.27
2023-03-26T16:45:22.510Z,8.06
2023-03-26T16:50:46.941Z,7.80
2023-03-26T16:56:48.660Z,7.54
2023-03-26T17:02:05.544Z,7.31
2023-03-26T17:07:16.412Z,7.19
2023-03-26T17:12:34.202Z,7.09
2023-03-26T17:18:04.282Z,7.04
2023-03-26T17:23:16.560Z,7.03
2023-03-26T17:29:02.025Z,7.03
2023-03-26T17:34:32.370Z,7.06
2023-03-26T17:39:42.148Z,7.09
2023-03-26T17:44:49.024Z,7.13
2023-03-26T17:50:10.578Z,7.15
2023-03-26T17:55:32.983Z,7.14
2023-03-26T18:00:44.981Z,7.12
2023-03-26T18:05:50.058Z,7.07
2023-03-26T18:11:14.918Z,7.03
2023-03-26T18:16:27.243Z,6.97
2023-03-26T18:21:39.904Z,6.91
2023-03-26T18:26:55.956Z,6.84
2023-03-26T18:32:13.382Z,6.79
2023-03-26T18:37:19.207Z,6.76
2023-03-26T18:42:26.163Z,6.75
2023-03-26T18:47:32.870Z,6.75
2023-03-26T18:52:37.353Z,6.74
2023-03-26T18:57:39.491Z,6.70
2023-03-26T19:02:42.349Z,6.64
2023-03-26T19:07:47.227Z,6.57
2023-03-26T19:12:57.640Z,6.50
2023-03-26T19:18:14.381Z,6.46
2023-03-26T19:23:21.279Z,6.45
2023-03-26T19:28:29.149Z,6.42
2023-03-26T19:33:37.981Z,6.34
2023-03-26T19:38:51.703Z,6.20
2023-03-26T19:44:00.217Z,6.01
2023-03-26T19:49:04.288Z,5.86
2023-03-26T19:54:16.055Z,5.71
2023-03-26T19:59:17.924Z,5.55
2023-03-26T20:04:20.615Z,5.35
2023-03-26T20:09:25.049Z,5.16
2023-03-26T20:14:27.045Z,4.95
2023-03-26T20:19:30.339Z,4.75
2023-03-26T20:24:32.618Z,4.57
2023-03-26T20:29:37.264Z,4.40
2023-03-26T20:34:39.546Z,4.24
2023-03-26T20:39:41.622Z,4.09
2023-03-26T20:44:43.400Z,4.01
2023-03-26T20:49:45.481Z,3.97
2023-03-26T20:54:47.354Z,3.97
2023-03-26T20:59:49.571Z,3.95
2023-03-26T21:04:53.602Z,3.93
2023-03-26T21:10:00.435Z,3.86
2023-03-26T21:15:16.716Z,3.76
2023-03-26T21:20:25.085Z,3.64
2023-03-26T21:25:49.414Z,3.52
2023-03-26T21:30:52.122Z,3.39
2023-03-26T21:35:57.013Z,3.24
2023-03-26T21:41:03.130Z,3.10
2023-03-26T21:46:05.872Z,2.95
2023-03-26T21:51:10.700Z,2.81
2023-03-26T21:56:31.948Z,2.67
2023-03-26T22:01:47.022Z,2.50
2023-03-26T22:06:58.922Z,2.30
2023-03-26T22:12:01.808Z,2.11
2023-03-26T22:17:04.917Z,1.94
2023-03-26T22:22:06.587Z,1.76
2023-03-26T22:27:08.464Z,1.60
2023-03-26T22:32:10.242Z,1.46
2023-03-26T22:37:13.142Z,1.32
2023-03-26T22:42:15.433Z,1.16
2023-03-26T22:47:17.098Z,1.03
2023-03-26T22:52:18.874Z,0.90
2023-03-26T22:57:21.779Z,0.79
2023-03-26T23:02:23.609Z,0.70
2023-03-26T23:07:25.534Z,0.63
2023-03-26T23:12:27.509Z,0.55
2023-03-26T23:17:29.609Z,0.47
2023-03-26T23:22:32.087Z,0.39
2023-03-26T23:27:34.986Z,0.32
2023-03-26T23:32:37.399Z,0.25
2023-03-26T23:37:41.711Z,0.20
2023-03-26T23:42:43.712Z,0.16
2023-03-26T23:47:46.305Z,0.10
2023-03-26T23:52:48.187Z,0.04
2023-03-26T23:57:49.835Z,-0.03
